sensor_id;sensor_type;location;lat;lon;timestamp;pressure;altitude;pressure_sealevel;temperature;humidity
4617;BME280;2321;42.704;23.384;2023-08-30T00:01:12;94529.75;;;21.53;nan
4617;BME280;2321;42.704;23.384;2023-08-30T00:03:38;94513.84;;;21.47;nan
4617;BME280;2321;42.704;23.384;2023-08-30T00:06:06;94524.72;;;21.41;nan
4617;BME280;2321;42.704;23.384;2023-08-30T00:08:32;94522.63;;;21.33;nan
4617;BME280;2321;42.704;23.384;2023-08-30T00:10:59;94531.56;;;21.28;nan
4617;BME280;2321;42.704;23.384;2023-08-30T00:13:28;94531.09;;;21.21;nan
4617;BME280;2321;42.704;23.384;2023-08-30T00:15:56;94534.88;;;21.20;nan
4617;BME280;2321;42.704;23.384;2023-08-30T00:18:23;94538.69;;;21.19;nan
4617;BME280;2321;42.704;23.384;2023-08-30T00:20:50;94533.03;;;21.15;nan
4617;BME280;2321;42.704;23.384;2023-08-30T00:23:15;94530.34;;;21.10;nan
4617;BME280;2321;42.704;23.384;2023-08-30T00:25:42;94532.81;;;21.06;nan
4617;BME280;2321;42.704;23.384;2023-08-30T00:28:08;94525.25;;;21.03;nan
4617;BME280;2321;42.704;23.384;2023-08-30T00:30:36;94520.38;;;21.00;nan
4617;BME280;2321;42.704;23.384;2023-08-30T00:33:04;94536.63;;;21.00;nan
4617;BME280;2321;42.704;23.384;2023-08-30T00:35:31;94538.50;;;20.99;nan
4617;BME280;2321;42.704;23.384;2023-08-30T00:37:57;94529.88;;;20.97;nan
4617;BME280;2321;42.704;23.384;2023-08-30T00:40:24;94522.31;;;20.94;nan
4617;BME280;2321;42.704;23.384;2023-08-30T00:42:50;94518.25;;;20.97;nan
4617;BME280;2321;42.704;23.384;2023-08-30T00:45:17;94519.06;;;20.92;nan
4617;BME280;2321;42.704;23.384;2023-08-30T00:47:44;94523.44;;;20.88;nan
4617;BME280;2321;42.704;23.384;2023-08-30T00:50:12;94535.59;;;20.85;nan
4617;BME280;2321;42.704;23.384;2023-08-30T00:52:40;94545.91;;;20.83;nan
4617;BME280;2321;42.704;23.384;2023-08-30T00:55:07;94547.78;;;20.83;nan
4617;BME280;2321;42.704;23.384;2023-08-30T00:57:34;94539.94;;;20.86;nan
4617;BME280;2321;42.704;23.384;2023-08-30T01:00:00;94539.66;;;20.88;nan
4617;BME280;2321;42.704;23.384;2023-08-30T01:02:28;94536.94;;;20.93;nan
4617;BME280;2321;42.704;23.384;2023-08-30T01:04:55;94546.06;;;21.03;nan
4617;BME280;2321;42.704;23.384;2023-08-30T01:07:23;94551.75;;;21.06;nan
4617;BME280;2321;42.704;23.384;2023-08-30T01:09:52;94569.09;;;21.05;nan
4617;BME280;2321;42.704;23.384;2023-08-30T01:12:20;94575.81;;;21.08;nan
4617;BME280;2321;42.704;23.384;2023-08-30T01:14:49;94579.88;;;21.10;nan
4617;BME280;2321;42.704;23.384;2023-08-30T01:17:18;94568.78;;;21.12;nan
4617;BME280;2321;42.704;23.384;2023-08-30T01:19:48;94567.41;;;21.15;nan
4617;BME280;2321;42.704;23.384;2023-08-30T01:22:18;94581.19;;;21.13;nan
4617;BME280;2321;42.704;23.384;2023-08-30T01:24:52;94578.47;;;21.18;nan
4617;BME280;2321;42.704;23.384;2023-08-30T01:27:24;94572.78;;;21.20;nan
4617;BME280;2321;42.704;23.384;2023-08-30T01:29:51;94571.19;;;21.19;nan
4617;BME280;2321;42.704;23.384;2023-08-30T01:32:20;94567.41;;;21.15;nan
4617;BME280;2321;42.704;23.384;2023-08-30T01:34:50;94569.59;;;21.07;nan
4617;BME280;2321;42.704;23.384;2023-08-30T01:37:17;94560.41;;;21.08;nan
4617;BME280;2321;42.704;23.384;2023-08-30T01:39:44;94550.13;;;21.05;nan
4617;BME280;2321;42.704;23.384;2023-08-30T01:42:12;94549.84;;;21.01;nan
4617;BME280;2321;42.704;23.384;2023-08-30T01:44:41;94552.31;;;20.98;nan
4617;BME280;2321;42.704;23.384;2023-08-30T01:49:36;94566.72;;;20.88;nan
4617;BME280;2321;42.704;23.384;2023-08-30T01:52:04;94584.03;;;20.87;nan
4617;BME280;2321;42.704;23.384;2023-08-30T01:54:32;94589.16;;;20.94;nan
4617;BME280;2321;42.704;23.384;2023-08-30T01:56:59;94586.44;;;20.94;nan
4617;BME280;2321;42.704;23.384;2023-08-30T01:59:25;94571.03;;;20.94;nan
4617;BME280;2321;42.704;23.384;2023-08-30T02:04:19;94570.81;;;20.80;nan
4617;BME280;2321;42.704;23.384;2023-08-30T02:06:48;94563.75;;;20.84;nan
4617;BME280;2321;42.704;23.384;2023-08-30T02:09:17;94565.88;;;20.93;nan
4617;BME280;2321;42.704;23.384;2023-08-30T02:11:45;94565.34;;;20.90;nan
4617;BME280;2321;42.704;23.384;2023-08-30T02:14:12;94561.56;;;20.86;nan
4617;BME280;2321;42.704;23.384;2023-08-30T02:19:08;94553.19;;;20.88;nan
4617;BME280;2321;42.704;23.384;2023-08-30T02:21:36;94549.41;;;20.84;nan
4617;BME280;2321;42.704;23.384;2023-08-30T02:24:03;94541.91;;;20.75;nan
4617;BME280;2321;42.704;23.384;2023-08-30T02:26:30;94537.88;;;20.67;nan
4617;BME280;2321;42.704;23.384;2023-08-30T02:28:57;94536.81;;;20.58;nan
4617;BME280;2321;42.704;23.384;2023-08-30T02:31:23;94542.81;;;20.50;nan
4617;BME280;2321;42.704;23.384;2023-08-30T02:33:50;94544.72;;;20.49;nan
4617;BME280;2321;42.704;23.384;2023-08-30T02:36:16;94555.81;;;20.48;nan
4617;BME280;2321;42.704;23.384;2023-08-30T02:38:44;94543.94;;;20.38;nan
4617;BME280;2321;42.704;23.384;2023-08-30T02:41:11;94551.00;;;20.39;nan
4617;BME280;2321;42.704;23.384;2023-08-30T02:43:37;94545.28;;;20.41;nan
4617;BME280;2321;42.704;23.384;2023-08-30T02:46:04;94552.03;;;20.43;nan
4617;BME280;2321;42.704;23.384;2023-08-30T02:48:31;94540.66;;;20.46;nan
4617;BME280;2321;42.704;23.384;2023-08-30T02:50:58;94540.16;;;20.44;nan
4617;BME280;2321;42.704;23.384;2023-08-30T02:53:25;94540.94;;;20.50;nan
4617;BME280;2321;42.704;23.384;2023-08-30T02:55:53;94542.81;;;20.50;nan
4617;BME280;2321;42.704;23.384;2023-08-30T02:58:20;94535.78;;;20.54;nan
4617;BME280;2321;42.704;23.384;2023-08-30T03:00:47;94534.41;;;20.56;nan
4617;BME280;2321;42.704;23.384;2023-08-30T03:03:13;94530.38;;;20.54;nan
4617;BME280;2321;42.704;23.384;2023-08-30T03:05:40;94531.72;;;20.56;nan
4617;BME280;2321;42.704;23.384;2023-08-30T03:08:07;94532.78;;;20.55;nan
4617;BME280;2321;42.704;23.384;2023-08-30T03:10:33;94536.31;;;20.56;nan
4617;BME280;2321;42.704;23.384;2023-08-30T03:13:01;94542.78;;;20.55;nan
4617;BME280;2321;42.704;23.384;2023-08-30T03:15:30;94545.81;;;20.48;nan
4617;BME280;2321;42.704;23.384;2023-08-30T03:17:57;94542.28;;;20.48;nan
4617;BME280;2321;42.704;23.384;2023-08-30T03:20:23;94541.47;;;20.47;nan
4617;BME280;2321;42.704;23.384;2023-08-30T03:22:50;94551.78;;;20.45;nan
4617;BME280;2321;42.704;23.384;2023-08-30T03:25:17;94552.56;;;20.45;nan
4617;BME280;2321;42.704;23.384;2023-08-30T03:27:44;94547.72;;;20.42;nan
4617;BME280;2321;42.704;23.384;2023-08-30T03:30:12;94550.44;;;20.42;nan
4617;BME280;2321;42.704;23.384;2023-08-30T03:32:39;94542.88;;;20.34;nan
4617;BME280;2321;42.704;23.384;2023-08-30T03:35:06;94541.00;;;20.29;nan
4617;BME280;2321;42.704;23.384;2023-08-30T03:37:33;94541.81;;;20.35;nan
4617;BME280;2321;42.704;23.384;2023-08-30T03:40:00;94536.41;;;20.35;nan
4617;BME280;2321;42.704;23.384;2023-08-30T03:42:27;94536.09;;;20.36;nan
4617;BME280;2321;42.704;23.384;2023-08-30T03:44:53;94538.56;;;20.33;nan
4617;BME280;2321;42.704;23.384;2023-08-30T03:47:21;94530.47;;;20.28;nan
4617;BME280;2321;42.704;23.384;2023-08-30T03:49:48;94522.91;;;20.24;nan
4617;BME280;2321;42.704;23.384;2023-08-30T03:52:14;94528.34;;;20.19;nan
4617;BME280;2321;42.704;23.384;2023-08-30T03:54:41;94529.97;;;20.15;nan
4617;BME280;2321;42.704;23.384;2023-08-30T03:57:07;94532.91;;;20.13;nan
4617;BME280;2321;42.704;23.384;2023-08-30T03:59:34;94537.50;;;20.13;nan
4617;BME280;2321;42.704;23.384;2023-08-30T04:02:01;94545.63;;;20.13;nan
4617;BME280;2321;42.704;23.384;2023-08-30T04:04:28;94555.91;;;20.16;nan
4617;BME280;2321;42.704;23.384;2023-08-30T04:06:57;94561.84;;;20.18;nan
4617;BME280;2321;42.704;23.384;2023-08-30T04:09:23;94568.06;;;20.19;nan
4617;BME280;2321;42.704;23.384;2023-08-30T04:11:50;94562.91;;;20.22;nan
4617;BME280;2321;42.704;23.384;2023-08-30T04:14:17;94563.75;;;20.18;nan
4617;BME280;2321;42.704;23.384;2023-08-30T04:16:43;94560.22;;;20.22;nan
4617;BME280;2321;42.704;23.384;2023-08-30T04:19:10;94564.00;;;20.27;nan
4617;BME280;2321;42.704;23.384;2023-08-30T04:21:38;94570.19;;;20.27;nan
4617;BME280;2321;42.704;23.384;2023-08-30T04:24:05;94579.13;;;20.33;nan
4617;BME280;2321;42.704;23.384;2023-08-30T04:26:31;94583.69;;;20.38;nan
4617;BME280;2321;42.704;23.384;2023-08-30T04:28:58;94598.53;;;20.40;nan
4617;BME280;2321;42.704;23.384;2023-08-30T04:31:24;94588.50;;;20.46;nan
4617;BME280;2321;42.704;23.384;2023-08-30T04:33:51;94586.88;;;20.55;nan
4617;BME280;2321;42.704;23.384;2023-08-30T04:36:20;94596.03;;;20.65;nan
4617;BME280;2321;42.704;23.384;2023-08-30T04:38:48;94601.16;;;20.72;nan
4617;BME280;2321;42.704;23.384;2023-08-30T04:41:15;94613.28;;;20.74;nan
4617;BME280;2321;42.704;23.384;2023-08-30T04:43:41;94617.88;;;20.74;nan
4617;BME280;2321;42.704;23.384;2023-08-30T04:46:08;94626.81;;;20.74;nan
4617;BME280;2321;42.704;23.384;2023-08-30T04:48:35;94636.56;;;20.70;nan
4617;BME280;2321;42.704;23.384;2023-08-30T04:51:03;94649.56;;;20.68;nan
4617;BME280;2321;42.704;23.384;2023-08-30T04:53:29;94643.34;;;20.67;nan
4617;BME280;2321;42.704;23.384;2023-08-30T04:55:57;94634.69;;;20.65;nan
4617;BME280;2321;42.704;23.384;2023-08-30T04:58:24;94623.06;;;20.65;nan
4617;BME280;2321;42.704;23.384;2023-08-30T05:00:51;94630.13;;;20.55;nan
4617;BME280;2321;42.704;23.384;2023-08-30T05:03:18;94627.13;;;20.62;nan
4617;BME280;2321;42.704;23.384;2023-08-30T05:05:45;94626.31;;;20.62;nan
4617;BME280;2321;42.704;23.384;2023-08-30T05:08:11;94632.03;;;20.60;nan
4617;BME280;2321;42.704;23.384;2023-08-30T05:10:38;94608.22;;;20.62;nan
4617;BME280;2321;42.704;23.384;2023-08-30T05:13:06;94614.69;;;20.66;nan
4617;BME280;2321;42.704;23.384;2023-08-30T05:15:33;94612.22;;;20.70;nan
4617;BME280;2321;42.704;23.384;2023-08-30T05:17:59;94621.97;;;20.71;nan
4617;BME280;2321;42.704;23.384;2023-08-30T05:20:26;94623.03;;;20.70;nan
4617;BME280;2321;42.704;23.384;2023-08-30T05:22:52;94621.44;;;20.69;nan
4617;BME280;2321;42.704;23.384;2023-08-30T05:25:19;94619.78;;;20.73;nan
4617;BME280;2321;42.704;23.384;2023-08-30T05:27:46;94630.88;;;20.77;nan
4617;BME280;2321;42.704;23.384;2023-08-30T05:30:14;94633.84;;;20.70;nan
4617;BME280;2321;42.704;23.384;2023-08-30T05:32:41;94635.78;;;20.70;nan
4617;BME280;2321;42.704;23.384;2023-08-30T05:35:08;94632.25;;;20.69;nan
4617;BME280;2321;42.704;23.384;2023-08-30T05:37:34;94630.38;;;20.70;nan
4617;BME280;2321;42.704;23.384;2023-08-30T05:40:01;94631.47;;;20.63;nan
4617;BME280;2321;42.704;23.384;2023-08-30T05:42:29;94633.06;;;20.64;nan
4617;BME280;2321;42.704;23.384;2023-08-30T05:44:55;94621.69;;;20.67;nan
4617;BME280;2321;42.704;23.384;2023-08-30T05:47:23;94626.56;;;20.71;nan
4617;BME280;2321;42.704;23.384;2023-08-30T05:49:50;94625.19;;;20.78;nan
4617;BME280;2321;42.704;23.384;2023-08-30T05:52:16;94623.78;;;20.86;nan
4617;BME280;2321;42.704;23.384;2023-08-30T05:54:43;94618.91;;;20.88;nan
4617;BME280;2321;42.704;23.384;2023-08-30T05:57:09;94627.03;;;20.94;nan
4617;BME280;2321;42.704;23.384;2023-08-30T05:59:36;94624.84;;;20.96;nan
4617;BME280;2321;42.704;23.384;2023-08-30T06:02:03;94628.63;;;21.00;nan
4617;BME280;2321;42.704;23.384;2023-08-30T06:04:31;94618.09;;;21.04;nan
4617;BME280;2321;42.704;23.384;2023-08-30T06:06:57;94623.16;;;21.10;nan
4617;BME280;2321;42.704;23.384;2023-08-30T06:09:24;94622.09;;;21.11;nan
4617;BME280;2321;42.704;23.384;2023-08-30T06:11:50;94623.13;;;21.21;nan
4617;BME280;2321;42.704;23.384;2023-08-30T06:14:17;94622.78;;;21.33;nan
4617;BME280;2321;42.704;23.384;2023-08-30T06:16:44;94623.28;;;21.40;nan
4617;BME280;2321;42.704;23.384;2023-08-30T06:19:10;94622.94;;;21.47;nan
4617;BME280;2321;42.704;23.384;2023-08-30T06:21:38;94630.50;;;21.55;nan
4617;BME280;2321;42.704;23.384;2023-08-30T06:24:05;94630.91;;;21.68;nan
4617;BME280;2321;42.704;23.384;2023-08-30T06:26:32;94629.00;;;21.74;nan
4617;BME280;2321;42.704;23.384;2023-08-30T06:28:59;94632.16;;;21.86;nan
4617;BME280;2321;42.704;23.384;2023-08-30T06:31:25;94630.47;;;21.96;nan
4617;BME280;2321;42.704;23.384;2023-08-30T06:33:54;94633.97;;;22.02;nan
4617;BME280;2321;42.704;23.384;2023-08-30T06:36:20;94642.56;;;22.09;nan
4617;BME280;2321;42.704;23.384;2023-08-30T06:38:49;94639.75;;;22.19;nan
4617;BME280;2321;42.704;23.384;2023-08-30T06:41:16;94640.19;;;22.32;nan
4617;BME280;2321;42.704;23.384;2023-08-30T06:43:42;94637.59;;;22.46;nan
4617;BME280;2321;42.704;23.384;2023-08-30T06:46:09;94634.47;;;22.58;nan
4617;BME280;2321;42.704;23.384;2023-08-30T06:48:36;94636.78;;;22.70;nan
4617;BME280;2321;42.704;23.384;2023-08-30T06:51:02;94639.06;;;22.88;nan
4617;BME280;2321;42.704;23.384;2023-08-30T06:53:29;94218.97;;;20.17;nan
4617;BME280;2321;42.704;23.384;2023-08-30T06:55:58;94634.78;;;23.06;nan
4617;BME280;2321;42.704;23.384;2023-08-30T06:58:24;94633.38;;;23.09;nan
4617;BME280;2321;42.704;23.384;2023-08-30T07:00:51;94635.28;;;23.08;nan
4617;BME280;2321;42.704;23.384;2023-08-30T07:03:17;94626.47;;;23.16;nan
4617;BME280;2321;42.704;23.384;2023-08-30T07:05:44;94629.34;;;23.25;nan
4617;BME280;2321;42.704;23.384;2023-08-30T07:08:12;94634.84;;;23.20;nan
4617;BME280;2321;42.704;23.384;2023-08-30T07:10:39;94639.34;;;23.30;nan
4617;BME280;2321;42.704;23.384;2023-08-30T07:13:07;94630.22;;;23.40;nan
4617;BME280;2321;42.704;23.384;2023-08-30T07:15:35;94626.56;;;23.50;nan
4617;BME280;2321;42.704;23.384;2023-08-30T07:18:02;94631.72;;;23.51;nan
4617;BME280;2321;42.704;23.384;2023-08-30T07:20:29;94630.84;;;23.56;nan
4617;BME280;2321;42.704;23.384;2023-08-30T07:22:55;94633.41;;;23.67;nan
4617;BME280;2321;42.704;23.384;2023-08-30T07:25:22;94627.41;;;23.70;nan
4617;BME280;2321;42.704;23.384;2023-08-30T07:27:49;94633.47;;;23.81;nan
4617;BME280;2321;42.704;23.384;2023-08-30T07:30:17;94639.72;;;23.81;nan
4617;BME280;2321;42.704;23.384;2023-08-30T07:32:44;94634.19;;;23.87;nan
4617;BME280;2321;42.704;23.384;2023-08-30T07:35:11;94627.44;;;23.84;nan
4617;BME280;2321;42.704;23.384;2023-08-30T07:37:38;94640.00;;;23.80;nan
4617;BME280;2321;42.704;23.384;2023-08-30T07:40:05;94632.16;;;23.78;nan
4617;BME280;2321;42.704;23.384;2023-08-30T07:42:32;94635.50;;;23.89;nan
4617;BME280;2321;42.704;23.384;2023-08-30T07:44:58;94636.97;;;24.01;nan
4617;BME280;2321;42.704;23.384;2023-08-30T07:47:26;94631.34;;;24.11;nan
4617;BME280;2321;42.704;23.384;2023-08-30T07:49:53;94635.47;;;24.23;nan
4617;BME280;2321;42.704;23.384;2023-08-30T07:52:19;94630.25;;;24.26;nan
4617;BME280;2321;42.704;23.384;2023-08-30T07:54:46;94623.72;;;24.27;nan
4617;BME280;2321;42.704;23.384;2023-08-30T07:57:13;94624.25;;;24.30;nan
4617;BME280;2321;42.704;23.384;2023-08-30T07:59:40;94628.00;;;24.34;nan
4617;BME280;2321;42.704;23.384;2023-08-30T08:02:06;94633.06;;;24.41;nan
4617;BME280;2321;42.704;23.384;2023-08-30T08:04:34;94638.88;;;24.48;nan
4617;BME280;2321;42.704;23.384;2023-08-30T08:07:01;94631.44;;;24.54;nan
4617;BME280;2321;42.704;23.384;2023-08-30T08:09:28;94643.00;;;24.59;nan
4617;BME280;2321;42.704;23.384;2023-08-30T08:11:55;94626.63;;;24.65;nan
4617;BME280;2321;42.704;23.384;2023-08-30T08:14:21;94635.66;;;24.60;nan
4617;BME280;2321;42.704;23.384;2023-08-30T08:16:48;94639.69;;;24.63;nan
4617;BME280;2321;42.704;23.384;2023-08-30T08:19:15;94634.56;;;24.61;nan
4617;BME280;2321;42.704;23.384;2023-08-30T08:21:43;94631.34;;;24.73;nan
4617;BME280;2321;42.704;23.384;2023-08-30T08:24:09;94638.78;;;24.81;nan
4617;BME280;2321;42.704;23.384;2023-08-30T08:26:36;94642.75;;;24.89;nan
4617;BME280;2321;42.704;23.384;2023-08-30T08:29:02;94636.56;;;24.98;nan
4617;BME280;2321;42.704;23.384;2023-08-30T08:31:29;94638.38;;;25.02;nan
4617;BME280;2321;42.704;23.384;2023-08-30T08:34:06;94645.06;;;25.10;nan
4617;BME280;2321;42.704;23.384;2023-08-30T08:36:33;94638.09;;;25.18;nan
4617;BME280;2321;42.704;23.384;2023-08-30T08:39:01;94647.66;;;25.30;nan
4617;BME280;2321;42.704;23.384;2023-08-30T08:41:31;94643.72;;;25.36;nan
4617;BME280;2321;42.704;23.384;2023-08-30T08:44:01;94643.28;;;25.43;nan
4617;BME280;2321;42.704;23.384;2023-08-30T08:46:31;94641.63;;;25.56;nan
4617;BME280;2321;42.704;23.384;2023-08-30T08:48:58;94646.34;;;25.64;nan
4617;BME280;2321;42.704;23.384;2023-08-30T08:51:26;94642.47;;;25.79;nan
4617;BME280;2321;42.704;23.384;2023-08-30T08:53:54;94639.94;;;25.83;nan
4617;BME280;2321;42.704;23.384;2023-08-30T08:56:26;94636.97;;;25.94;nan
4617;BME280;2321;42.704;23.384;2023-08-30T08:58:53;94637.28;;;25.92;nan
4617;BME280;2321;42.704;23.384;2023-08-30T09:01:21;94637.47;;;25.96;nan
4617;BME280;2321;42.704;23.384;2023-08-30T09:03:47;94643.31;;;26.03;nan
4617;BME280;2321;42.704;23.384;2023-08-30T09:06:14;94635.97;;;26.13;nan
4617;BME280;2321;42.704;23.384;2023-08-30T09:08:41;94637.63;;;26.22;nan
4617;BME280;2321;42.704;23.384;2023-08-30T09:11:08;94634.47;;;26.29;nan
4617;BME280;2321;42.704;23.384;2023-08-30T09:13:35;94630.72;;;26.25;nan
4617;BME280;2321;42.704;23.384;2023-08-30T09:16:02;94615.47;;;26.15;nan
4617;BME280;2321;42.704;23.384;2023-08-30T09:18:29;94624.66;;;26.28;nan
4617;BME280;2321;42.704;23.384;2023-08-30T09:21:04;94628.41;;;26.41;nan
4617;BME280;2321;42.704;23.384;2023-08-30T09:23:31;94630.97;;;26.38;nan
4617;BME280;2321;42.704;23.384;2023-08-30T09:25:58;94636.31;;;26.43;nan
4617;BME280;2321;42.704;23.384;2023-08-30T09:28:25;94621.09;;;26.51;nan
4617;BME280;2321;42.704;23.384;2023-08-30T09:30:53;94615.06;;;26.63;nan
4617;BME280;2321;42.704;23.384;2023-08-30T09:33:20;94622.97;;;26.73;nan
4617;BME280;2321;42.704;23.384;2023-08-30T09:35:47;94619.31;;;26.87;nan
4617;BME280;2321;42.704;23.384;2023-08-30T09:38:17;94626.56;;;26.92;nan
4617;BME280;2321;42.704;23.384;2023-08-30T09:40:44;94627.50;;;26.96;nan
4617;BME280;2321;42.704;23.384;2023-08-30T09:43:10;94627.69;;;27.00;nan
4617;BME280;2321;42.704;23.384;2023-08-30T09:45:37;94628.19;;;27.02;nan
4617;BME280;2321;42.704;23.384;2023-08-30T09:48:06;94627.03;;;26.94;nan
4617;BME280;2321;42.704;23.384;2023-08-30T09:50:33;94618.69;;;26.99;nan
4617;BME280;2321;42.704;23.384;2023-08-30T09:53:01;94612.75;;;27.06;nan
4617;BME280;2321;42.704;23.384;2023-08-30T09:55:31;94615.25;;;27.16;nan
4617;BME280;2321;42.704;23.384;2023-08-30T09:57:59;94606.72;;;27.27;nan
4617;BME280;2321;42.704;23.384;2023-08-30T10:00:26;94608.16;;;27.42;nan
4617;BME280;2321;42.704;23.384;2023-08-30T10:02:53;94604.66;;;27.50;nan
4617;BME280;2321;42.704;23.384;2023-08-30T10:05:22;94604.66;;;27.50;nan
4617;BME280;2321;42.704;23.384;2023-08-30T10:07:48;94593.38;;;27.52;nan
4617;BME280;2321;42.704;23.384;2023-08-30T10:10:17;94591.78;;;27.51;nan
4617;BME280;2321;42.704;23.384;2023-08-30T10:12:44;94594.03;;;27.58;nan
4617;BME280;2321;42.704;23.384;2023-08-30T10:15:12;94597.09;;;27.74;nan
4617;BME280;2321;42.704;23.384;2023-08-30T10:17:40;94589.19;;;27.81;nan
4617;BME280;2321;42.704;23.384;2023-08-30T10:20:08;94585.97;;;27.88;nan
4617;BME280;2321;42.704;23.384;2023-08-30T10:22:38;94584.38;;;27.96;nan
4617;BME280;2321;42.704;23.384;2023-08-30T10:25:07;94579.50;;;28.11;nan
4617;BME280;2321;42.704;23.384;2023-08-30T10:27:35;94575.47;;;28.17;nan
4617;BME280;2321;42.704;23.384;2023-08-30T10:30:04;94581.91;;;28.21;nan
4617;BME280;2321;42.704;23.384;2023-08-30T10:32:31;94588.66;;;28.24;nan
4617;BME280;2321;42.704;23.384;2023-08-30T10:35:00;94583.00;;;28.29;nan
4617;BME280;2321;42.704;23.384;2023-08-30T10:37:27;94583.81;;;28.30;nan
4617;BME280;2321;42.704;23.384;2023-08-30T10:40:00;94581.88;;;28.30;nan
4617;BME280;2321;42.704;23.384;2023-08-30T10:42:28;94576.72;;;28.28;nan
4617;BME280;2321;42.704;23.384;2023-08-30T10:44:56;94576.69;;;28.37;nan
4617;BME280;2321;42.704;23.384;2023-08-30T10:47:23;94573.78;;;28.52;nan
4617;BME280;2321;42.704;23.384;2023-08-30T10:49:53;94579.72;;;28.54;nan
4617;BME280;2321;42.704;23.384;2023-08-30T10:52:19;94575.06;;;28.45;nan
4617;BME280;2321;42.704;23.384;2023-08-30T10:54:46;94562.81;;;28.52;nan
4617;BME280;2321;42.704;23.384;2023-08-30T10:57:15;94561.97;;;28.60;nan
4617;BME280;2321;42.704;23.384;2023-08-30T11:00:03;94566.88;;;28.76;nan
4617;BME280;2321;42.704;23.384;2023-08-30T11:02:30;94571.34;;;28.80;nan
4617;BME280;2321;42.704;23.384;2023-08-30T11:04:57;94573.47;;;28.75;nan
4617;BME280;2321;42.704;23.384;2023-08-30T11:07:24;94564.66;;;28.69;nan
4617;BME280;2321;42.704;23.384;2023-08-30T11:09:51;94569.31;;;28.68;nan
4617;BME280;2321;42.704;23.384;2023-08-30T11:12:19;94568.53;;;28.68;nan
4617;BME280;2321;42.704;23.384;2023-08-30T11:14:47;94571.88;;;28.74;nan
4617;BME280;2321;42.704;23.384;2023-08-30T11:17:15;94562.31;;;28.89;nan
4617;BME280;2321;42.704;23.384;2023-08-30T11:19:42;94554.22;;;28.92;nan
4617;BME280;2321;42.704;23.384;2023-08-30T11:22:08;94551.47;;;28.92;nan
4617;BME280;2321;42.704;23.384;2023-08-30T11:24:35;94554.22;;;28.92;nan
4617;BME280;2321;42.704;23.384;2023-08-30T11:27:02;94548.94;;;29.09;nan
4617;BME280;2321;42.704;23.384;2023-08-30T11:29:30;94548.09;;;29.17;nan
4617;BME280;2321;42.704;23.384;2023-08-30T11:31:57;94541.50;;;29.18;nan
4617;BME280;2321;42.704;23.384;2023-08-30T11:34:23;94538.56;;;29.23;nan
4617;BME280;2321;42.704;23.384;2023-08-30T11:36:50;94528.53;;;29.28;nan
4617;BME280;2321;42.704;23.384;2023-08-30T11:39:17;94537.28;;;29.21;nan
4617;BME280;2321;42.704;23.384;2023-08-30T11:41:43;94529.72;;;29.18;nan
4617;BME280;2321;42.704;23.384;2023-08-30T11:44:10;94520.56;;;29.13;nan
4617;BME280;2321;42.704;23.384;2023-08-30T11:46:38;94522.53;;;29.13;nan
4617;BME280;2321;42.704;23.384;2023-08-30T11:49:05;94532.56;;;29.00;nan
4617;BME280;2321;42.704;23.384;2023-08-30T11:51:31;94519.91;;;28.86;nan
4617;BME280;2321;42.704;23.384;2023-08-30T11:53:59;94506.44;;;28.81;nan
4617;BME280;2321;42.704;23.384;2023-08-30T11:56:27;94511.59;;;28.82;nan
4617;BME280;2321;42.704;23.384;2023-08-30T11:58:54;94512.88;;;28.85;nan
4617;BME280;2321;42.704;23.384;2023-08-30T12:01:20;94511.25;;;28.84;nan
4617;BME280;2321;42.704;23.384;2023-08-30T12:03:49;94510.88;;;28.95;nan
4617;BME280;2321;42.704;23.384;2023-08-30T12:06:15;94504.06;;;29.01;nan
4617;BME280;2321;42.704;23.384;2023-08-30T12:08:42;94509.78;;;29.08;nan
4617;BME280;2321;42.704;23.384;2023-08-30T12:11:17;94504.44;;;29.12;nan
4617;BME280;2321;42.704;23.384;2023-08-30T12:13:43;94498.31;;;29.15;nan
4617;BME280;2321;42.704;23.384;2023-08-30T12:16:14;94497.56;;;29.27;nan
4617;BME280;2321;42.704;23.384;2023-08-30T12:18:41;94495.22;;;29.38;nan
4617;BME280;2321;42.704;23.384;2023-08-30T12:21:09;94493.16;;;29.35;nan
4617;BME280;2321;42.704;23.384;2023-08-30T12:23:36;94486.22;;;29.38;nan
4617;BME280;2321;42.704;23.384;2023-08-30T12:26:03;94489.19;;;29.45;nan
4617;BME280;2321;42.704;23.384;2023-08-30T12:28:30;94489.31;;;29.48;nan
4617;BME280;2321;42.704;23.384;2023-08-30T12:30:57;94484.88;;;29.56;nan
4617;BME280;2321;42.704;23.384;2023-08-30T12:33:24;94481.94;;;29.62;nan
4617;BME280;2321;42.704;23.384;2023-08-30T12:35:51;94474.53;;;29.62;nan
4617;BME280;2321;42.704;23.384;2023-08-30T12:38:19;94473.63;;;29.71;nan
4617;BME280;2321;42.704;23.384;2023-08-30T12:40:46;94478.13;;;29.88;nan
4617;BME280;2321;42.704;23.384;2023-08-30T12:43:14;94479.22;;;30.08;nan
4617;BME280;2321;42.704;23.384;2023-08-30T12:45:40;94473.94;;;30.16;nan
4617;BME280;2321;42.704;23.384;2023-08-30T12:48:07;94477.47;;;30.16;nan
4617;BME280;2321;42.704;23.384;2023-08-30T12:50:34;94467.19;;;30.13;nan
4617;BME280;2321;42.704;23.384;2023-08-30T12:53:01;94468.22;;;30.21;nan
4617;BME280;2321;42.704;23.384;2023-08-30T12:55:29;94465.28;;;30.39;nan
4617;BME280;2321;42.704;23.384;2023-08-30T12:57:56;94463.78;;;30.54;nan
4617;BME280;2321;42.704;23.384;2023-08-30T13:00:23;94459.97;;;30.71;nan
4617;BME280;2321;42.704;23.384;2023-08-30T13:02:50;94456.06;;;30.85;nan
4617;BME280;2321;42.704;23.384;2023-08-30T13:05:16;94452.81;;;30.95;nan
4617;BME280;2321;42.704;23.384;2023-08-30T13:07:43;94451.34;;;30.98;nan
4617;BME280;2321;42.704;23.384;2023-08-30T13:10:10;94455.00;;;31.02;nan
4617;BME280;2321;42.704;23.384;2023-08-30T13:12:38;94454.91;;;30.98;nan
4617;BME280;2321;42.704;23.384;2023-08-30T13:15:05;94461.75;;;31.05;nan
4617;BME280;2321;42.704;23.384;2023-08-30T13:17:32;94446.75;;;31.02;nan
4617;BME280;2321;42.704;23.384;2023-08-30T13:19:58;94461.88;;;30.96;nan
4617;BME280;2321;42.704;23.384;2023-08-30T13:22:25;94456.16;;;30.76;nan
4617;BME280;2321;42.704;23.384;2023-08-30T13:24:52;94450.72;;;30.63;nan
4617;BME280;2321;42.704;23.384;2023-08-30T13:27:18;94447.75;;;30.56;nan
4617;BME280;2321;42.704;23.384;2023-08-30T13:29:46;94456.00;;;30.56;nan
4617;BME280;2321;42.704;23.384;2023-08-30T13:32:13;94443.66;;;30.50;nan
4617;BME280;2321;42.704;23.384;2023-08-30T13:34:39;94442.38;;;30.60;nan
4617;BME280;2321;42.704;23.384;2023-08-30T13:37:08;94437.56;;;30.69;nan
4617;BME280;2321;42.704;23.384;2023-08-30T13:39:35;94430.66;;;30.88;nan